sensor_id;sensor_type;location;lat;lon;timestamp;P1;durP1;ratioP1;P2;durP2;ratioP2
19828;SDS011;10075;50.924;4.396;2023-06-14T00:00:47;8.05;;;6.20;;
19828;SDS011;10075;50.924;4.396;2023-06-14T00:03:14;10.25;;;5.93;;
19828;SDS011;10075;50.924;4.396;2023-06-14T00:05:42;11.73;;;6.70;;
19828;SDS011;10075;50.924;4.396;2023-06-14T00:08:11;11.48;;;5.88;;
19828;SDS011;10075;50.924;4.396;2023-06-14T00:10:38;8.48;;;5.93;;
19828;SDS011;10075;50.924;4.396;2023-06-14T00:13:07;11.85;;;6.05;;
19828;SDS011;10075;50.924;4.396;2023-06-14T00:15:35;11.75;;;7.00;;
19828;SDS011;10075;50.924;4.396;2023-06-14T00:18:02;12.10;;;6.00;;
19828;SDS011;10075;50.924;4.396;2023-06-14T00:20:30;12.57;;;6.20;;
19828;SDS011;10075;50.924;4.396;2023-06-14T00:22:59;10.80;;;5.50;;
19828;SDS011;10075;50.924;4.396;2023-06-14T00:25:26;16.25;;;6.63;;
19828;SDS011;10075;50.924;4.396;2023-06-14T00:27:53;16.23;;;6.75;;
19828;SDS011;10075;50.924;4.396;2023-06-14T00:30:21;12.02;;;5.97;;
19828;SDS011;10075;50.924;4.396;2023-06-14T00:32:49;19.38;;;6.97;;
19828;SDS011;10075;50.924;4.396;2023-06-14T00:35:16;31.98;;;7.32;;
19828;SDS011;10075;50.924;4.396;2023-06-14T00:37:43;19.20;;;6.72;;
19828;SDS011;10075;50.924;4.396;2023-06-14T00:40:10;15.35;;;7.22;;
19828;SDS011;10075;50.924;4.396;2023-06-14T00:42:37;11.52;;;6.60;;
19828;SDS011;10075;50.924;4.396;2023-06-14T00:45:05;12.02;;;6.43;;
19828;SDS011;10075;50.924;4.396;2023-06-14T00:47:32;16.50;;;6.68;;
19828;SDS011;10075;50.924;4.396;2023-06-14T00:50:01;14.48;;;7.13;;
19828;SDS011;10075;50.924;4.396;2023-06-14T00:52:29;21.50;;;6.68;;
19828;SDS011;10075;50.924;4.396;2023-06-14T00:54:57;8.73;;;6.25;;
19828;SDS011;10075;50.924;4.396;2023-06-14T00:57:24;8.70;;;6.75;;
19828;SDS011;10075;50.924;4.396;2023-06-14T00:59:52;16.30;;;6.65;;
19828;SDS011;10075;50.924;4.396;2023-06-14T01:02:20;13.90;;;6.80;;
19828;SDS011;10075;50.924;4.396;2023-06-14T01:04:47;18.50;;;8.07;;
19828;SDS011;10075;50.924;4.396;2023-06-14T01:07:21;15.85;;;7.30;;
19828;SDS011;10075;50.924;4.396;2023-06-14T01:09:58;19.45;;;7.55;;
19828;SDS011;10075;50.924;4.396;2023-06-14T01:12:39;9.02;;;5.85;;
19828;SDS011;10075;50.924;4.396;2023-06-14T01:15:17;10.13;;;6.05;;
19828;SDS011;10075;50.924;4.396;2023-06-14T01:17:44;11.10;;;6.72;;
19828;SDS011;10075;50.924;4.396;2023-06-14T01:20:12;12.90;;;6.65;;
19828;SDS011;10075;50.924;4.396;2023-06-14T01:22:48;9.90;;;5.75;;
19828;SDS011;10075;50.924;4.396;2023-06-14T01:25:17;12.50;;;6.70;;
19828;SDS011;10075;50.924;4.396;2023-06-14T01:27:46;8.50;;;6.22;;
19828;SDS011;10075;50.924;4.396;2023-06-14T01:30:14;11.60;;;6.03;;
19828;SDS011;10075;50.924;4.396;2023-06-14T01:32:42;10.25;;;6.47;;
19828;SDS011;10075;50.924;4.396;2023-06-14T01:35:11;9.60;;;6.47;;
19828;SDS011;10075;50.924;4.396;2023-06-14T01:37:39;11.25;;;6.43;;
19828;SDS011;10075;50.924;4.396;2023-06-14T01:40:08;10.10;;;6.95;;
19828;SDS011;10075;50.924;4.396;2023-06-14T01:42:37;9.30;;;6.53;;
19828;SDS011;10075;50.924;4.396;2023-06-14T01:45:05;9.70;;;6.53;;
19828;SDS011;10075;50.924;4.396;2023-06-14T01:47:33;9.68;;;6.05;;
19828;SDS011;10075;50.924;4.396;2023-06-14T01:50:01;9.27;;;6.63;;
19828;SDS011;10075;50.924;4.396;2023-06-14T01:52:29;7.85;;;5.97;;
19828;SDS011;10075;50.924;4.396;2023-06-14T01:54:56;10.30;;;6.00;;
19828;SDS011;10075;50.924;4.396;2023-06-14T01:57:25;9.95;;;6.78;;
19828;SDS011;10075;50.924;4.396;2023-06-14T01:59:52;10.90;;;6.43;;
19828;SDS011;10075;50.924;4.396;2023-06-14T02:02:20;9.13;;;6.60;;
19828;SDS011;10075;50.924;4.396;2023-06-14T02:04:47;9.50;;;6.88;;
19828;SDS011;10075;50.924;4.396;2023-06-14T02:07:14;9.50;;;7.00;;
19828;SDS011;10075;50.924;4.396;2023-06-14T02:09:41;13.35;;;6.75;;
19828;SDS011;10075;50.924;4.396;2023-06-14T02:12:08;9.57;;;7.10;;
19828;SDS011;10075;50.924;4.396;2023-06-14T02:14:37;11.48;;;8.20;;
19828;SDS011;10075;50.924;4.396;2023-06-14T02:17:04;10.25;;;6.82;;
19828;SDS011;10075;50.924;4.396;2023-06-14T02:19:31;7.57;;;6.13;;
19828;SDS011;10075;50.924;4.396;2023-06-14T02:21:59;9.93;;;7.35;;
19828;SDS011;10075;50.924;4.396;2023-06-14T02:24:26;9.60;;;7.25;;
19828;SDS011;10075;50.924;4.396;2023-06-14T02:26:53;10.32;;;7.07;;
19828;SDS011;10075;50.924;4.396;2023-06-14T02:29:20;15.07;;;7.45;;
19828;SDS011;10075;50.924;4.396;2023-06-14T02:31:50;8.93;;;8.00;;
19828;SDS011;10075;50.924;4.396;2023-06-14T02:34:16;18.85;;;7.97;;
19828;SDS011;10075;50.924;4.396;2023-06-14T02:36:45;12.73;;;7.75;;
19828;SDS011;10075;50.924;4.396;2023-06-14T02:39:13;13.00;;;7.28;;
19828;SDS011;10075;50.924;4.396;2023-06-14T02:41:40;11.65;;;7.38;;
19828;SDS011;10075;50.924;4.396;2023-06-14T02:44:07;16.20;;;8.20;;
19828;SDS011;10075;50.924;4.396;2023-06-14T02:46:34;20.00;;;7.97;;
19828;SDS011;10075;50.924;4.396;2023-06-14T02:49:03;13.40;;;8.18;;
19828;SDS011;10075;50.924;4.396;2023-06-14T02:51:30;14.35;;;8.65;;
19828;SDS011;10075;50.924;4.396;2023-06-14T02:53:57;14.02;;;8.13;;
19828;SDS011;10075;50.924;4.396;2023-06-14T02:56:24;20.00;;;8.77;;
19828;SDS011;10075;50.924;4.396;2023-06-14T02:58:51;15.18;;;8.50;;
19828;SDS011;10075;50.924;4.396;2023-06-14T03:01:18;11.48;;;8.15;;
19828;SDS011;10075;50.924;4.396;2023-06-14T03:03:45;13.27;;;8.40;;
19828;SDS011;10075;50.924;4.396;2023-06-14T03:06:14;14.63;;;8.45;;
19828;SDS011;10075;50.924;4.396;2023-06-14T03:08:41;13.25;;;8.75;;
19828;SDS011;10075;50.924;4.396;2023-06-14T03:11:09;17.15;;;8.40;;
19828;SDS011;10075;50.924;4.396;2023-06-14T03:13:36;10.32;;;8.00;;
19828;SDS011;10075;50.924;4.396;2023-06-14T03:16:04;14.52;;;8.20;;
19828;SDS011;10075;50.924;4.396;2023-06-14T03:18:32;15.80;;;7.60;;
19828;SDS011;10075;50.924;4.396;2023-06-14T03:21:00;16.73;;;8.38;;
19828;SDS011;10075;50.924;4.396;2023-06-14T03:23:29;15.70;;;8.13;;
19828;SDS011;10075;50.924;4.396;2023-06-14T03:25:56;15.63;;;7.93;;
19828;SDS011;10075;50.924;4.396;2023-06-14T03:28:23;18.02;;;8.45;;
19828;SDS011;10075;50.924;4.396;2023-06-14T03:30:50;15.68;;;7.45;;
19828;SDS011;10075;50.924;4.396;2023-06-14T03:33:17;11.48;;;8.07;;
19828;SDS011;10075;50.924;4.396;2023-06-14T03:35:46;14.25;;;9.27;;
19828;SDS011;10075;50.924;4.396;2023-06-14T03:38:13;21.02;;;8.00;;
19828;SDS011;10075;50.924;4.396;2023-06-14T03:40:41;20.45;;;9.48;;
19828;SDS011;10075;50.924;4.396;2023-06-14T03:43:09;21.95;;;9.45;;
19828;SDS011;10075;50.924;4.396;2023-06-14T03:45:36;19.67;;;9.15;;
19828;SDS011;10075;50.924;4.396;2023-06-14T03:48:03;30.52;;;9.73;;
19828;SDS011;10075;50.924;4.396;2023-06-14T03:50:31;25.20;;;8.48;;
19828;SDS011;10075;50.924;4.396;2023-06-14T03:52:58;28.42;;;9.95;;
19828;SDS011;10075;50.924;4.396;2023-06-14T03:55:26;21.25;;;8.77;;
19828;SDS011;10075;50.924;4.396;2023-06-14T03:57:57;27.50;;;8.57;;
19828;SDS011;10075;50.924;4.396;2023-06-14T04:00:25;22.13;;;9.07;;
19828;SDS011;10075;50.924;4.396;2023-06-14T04:02:52;30.58;;;8.90;;
19828;SDS011;10075;50.924;4.396;2023-06-14T04:05:19;23.67;;;7.72;;
19828;SDS011;10075;50.924;4.396;2023-06-14T04:07:46;17.67;;;8.10;;
19828;SDS011;10075;50.924;4.396;2023-06-14T04:10:14;23.38;;;8.27;;
19828;SDS011;10075;50.924;4.396;2023-06-14T04:12:42;20.83;;;8.45;;
19828;SDS011;10075;50.924;4.396;2023-06-14T04:15:10;17.05;;;8.20;;
19828;SDS011;10075;50.924;4.396;2023-06-14T04:17:38;13.88;;;8.05;;
19828;SDS011;10075;50.924;4.396;2023-06-14T04:20:06;20.70;;;7.70;;
19828;SDS011;10075;50.924;4.396;2023-06-14T04:22:35;15.48;;;7.78;;
19828;SDS011;10075;50.924;4.396;2023-06-14T04:25:02;13.75;;;7.97;;
19828;SDS011;10075;50.924;4.396;2023-06-14T04:27:31;17.15;;;7.78;;
19828;SDS011;10075;50.924;4.396;2023-06-14T04:30:01;16.88;;;7.90;;
19828;SDS011;10075;50.924;4.396;2023-06-14T04:32:30;15.75;;;7.32;;
19828;SDS011;10075;50.924;4.396;2023-06-14T04:34:58;10.05;;;7.57;;
19828;SDS011;10075;50.924;4.396;2023-06-14T04:37:27;13.90;;;7.85;;
19828;SDS011;10075;50.924;4.396;2023-06-14T04:39:55;21.17;;;8.27;;
19828;SDS011;10075;50.924;4.396;2023-06-14T04:42:22;12.93;;;7.35;;
19828;SDS011;10075;50.924;4.396;2023-06-14T04:44:55;15.73;;;8.25;;
19828;SDS011;10075;50.924;4.396;2023-06-14T04:47:22;15.23;;;8.75;;
19828;SDS011;10075;50.924;4.396;2023-06-14T04:49:51;13.32;;;7.78;;
19828;SDS011;10075;50.924;4.396;2023-06-14T04:52:18;14.00;;;8.10;;
19828;SDS011;10075;50.924;4.396;2023-06-14T04:54:46;12.75;;;7.72;;
19828;SDS011;10075;50.924;4.396;2023-06-14T04:57:13;9.98;;;7.55;;
19828;SDS011;10075;50.924;4.396;2023-06-14T04:59:42;13.80;;;8.25;;
19828;SDS011;10075;50.924;4.396;2023-06-14T05:02:09;15.43;;;7.28;;
19828;SDS011;10075;50.924;4.396;2023-06-14T05:04:36;13.75;;;7.70;;
19828;SDS011;10075;50.924;4.396;2023-06-14T05:07:07;13.80;;;8.23;;
19828;SDS011;10075;50.924;4.396;2023-06-14T05:09:35;11.57;;;7.50;;
19828;SDS011;10075;50.924;4.396;2023-06-14T05:12:03;12.07;;;8.18;;
19828;SDS011;10075;50.924;4.396;2023-06-14T05:14:32;11.75;;;9.10;;
19828;SDS011;10075;50.924;4.396;2023-06-14T05:16:59;16.05;;;8.43;;
19828;SDS011;10075;50.924;4.396;2023-06-14T05:19:27;11.13;;;8.20;;
19828;SDS011;10075;50.924;4.396;2023-06-14T05:21:54;10.05;;;7.82;;
19828;SDS011;10075;50.924;4.396;2023-06-14T05:24:23;12.98;;;8.18;;
19828;SDS011;10075;50.924;4.396;2023-06-14T05:26:50;12.55;;;7.47;;
19828;SDS011;10075;50.924;4.396;2023-06-14T05:29:17;12.70;;;6.95;;
19828;SDS011;10075;50.924;4.396;2023-06-14T05:31:44;16.30;;;7.97;;
19828;SDS011;10075;50.924;4.396;2023-06-14T05:34:11;9.90;;;6.60;;
19828;SDS011;10075;50.924;4.396;2023-06-14T05:36:38;11.05;;;7.53;;
19828;SDS011;10075;50.924;4.396;2023-06-14T05:39:05;13.30;;;8.10;;
19828;SDS011;10075;50.924;4.396;2023-06-14T05:41:35;15.65;;;8.32;;
19828;SDS011;10075;50.924;4.396;2023-06-14T05:44:02;12.55;;;6.97;;
19828;SDS011;10075;50.924;4.396;2023-06-14T05:46:29;10.07;;;7.72;;
19828;SDS011;10075;50.924;4.396;2023-06-14T05:48:56;14.90;;;8.65;;
19828;SDS011;10075;50.924;4.396;2023-06-14T05:51:23;13.95;;;7.53;;
19828;SDS011;10075;50.924;4.396;2023-06-14T05:53:51;10.02;;;7.65;;
19828;SDS011;10075;50.924;4.396;2023-06-14T05:56:19;9.80;;;8.02;;
19828;SDS011;10075;50.924;4.396;2023-06-14T05:58:47;13.48;;;7.88;;
19828;SDS011;10075;50.924;4.396;2023-06-14T06:01:15;13.90;;;8.27;;
19828;SDS011;10075;50.924;4.396;2023-06-14T06:03:42;11.75;;;8.02;;
19828;SDS011;10075;50.924;4.396;2023-06-14T06:06:11;12.45;;;7.85;;
19828;SDS011;10075;50.924;4.396;2023-06-14T06:08:38;12.27;;;8.13;;
19828;SDS011;10075;50.924;4.396;2023-06-14T06:11:05;14.73;;;7.88;;
19828;SDS011;10075;50.924;4.396;2023-06-14T06:13:32;11.93;;;7.22;;
19828;SDS011;10075;50.924;4.396;2023-06-14T06:16:01;17.23;;;7.65;;
19828;SDS011;10075;50.924;4.396;2023-06-14T06:18:28;15.65;;;8.25;;
19828;SDS011;10075;50.924;4.396;2023-06-14T06:20:55;13.75;;;7.82;;
19828;SDS011;10075;50.924;4.396;2023-06-14T06:23:22;12.15;;;8.27;;
19828;SDS011;10075;50.924;4.396;2023-06-14T06:25:49;12.75;;;7.90;;
19828;SDS011;10075;50.924;4.396;2023-06-14T06:28:17;13.05;;;8.38;;
19828;SDS011;10075;50.924;4.396;2023-06-14T06:30:44;13.93;;;7.47;;
19828;SDS011;10075;50.924;4.396;2023-06-14T06:33:12;14.63;;;7.50;;
19828;SDS011;10075;50.924;4.396;2023-06-14T06:35:40;15.27;;;7.47;;
19828;SDS011;10075;50.924;4.396;2023-06-14T06:38:07;11.98;;;7.50;;
19828;SDS011;10075;50.924;4.396;2023-06-14T06:40:35;18.02;;;7.95;;
19828;SDS011;10075;50.924;4.396;2023-06-14T06:43:02;21.45;;;8.48;;
19828;SDS011;10075;50.924;4.396;2023-06-14T06:45:29;17.00;;;7.95;;
19828;SDS011;10075;50.924;4.396;2023-06-14T06:47:56;15.32;;;7.93;;
19828;SDS011;10075;50.924;4.396;2023-06-14T06:50:24;16.00;;;8.63;;
19828;SDS011;10075;50.924;4.396;2023-06-14T06:52:51;19.08;;;8.45;;
19828;SDS011;10075;50.924;4.396;2023-06-14T06:55:19;40.47;;;10.98;;
19828;SDS011;10075;50.924;4.396;2023-06-14T06:57:46;21.95;;;8.85;;
19828;SDS011;10075;50.924;4.396;2023-06-14T07:00:15;28.42;;;9.07;;
19828;SDS011;10075;50.924;4.396;2023-06-14T07:02:42;21.02;;;9.07;;
19828;SDS011;10075;50.924;4.396;2023-06-14T07:05:10;24.30;;;9.63;;
19828;SDS011;10075;50.924;4.396;2023-06-14T07:07:38;20.58;;;8.70;;
19828;SDS011;10075;50.924;4.396;2023-06-14T07:10:06;27.35;;;9.35;;
19828;SDS011;10075;50.924;4.396;2023-06-14T07:12:34;14.27;;;7.70;;
19828;SDS011;10075;50.924;4.396;2023-06-14T07:15:05;17.38;;;7.97;;
19828;SDS011;10075;50.924;4.396;2023-06-14T07:17:33;19.50;;;8.07;;
19828;SDS011;10075;50.924;4.396;2023-06-14T07:20:02;15.75;;;7.20;;
19828;SDS011;10075;50.924;4.396;2023-06-14T07:22:39;13.23;;;7.82;;
19828;SDS011;10075;50.924;4.396;2023-06-14T07:25:07;11.10;;;6.50;;
19828;SDS011;10075;50.924;4.396;2023-06-14T07:27:37;11.25;;;6.93;;
19828;SDS011;10075;50.924;4.396;2023-06-14T07:30:05;12.60;;;7.85;;
19828;SDS011;10075;50.924;4.396;2023-06-14T07:32:33;10.30;;;6.80;;
19828;SDS011;10075;50.924;4.396;2023-06-14T07:35:00;11.15;;;6.47;;
19828;SDS011;10075;50.924;4.396;2023-06-14T07:37:28;10.80;;;6.72;;
19828;SDS011;10075;50.924;4.396;2023-06-14T07:39:57;12.68;;;6.40;;
19828;SDS011;10075;50.924;4.396;2023-06-14T07:42:24;9.95;;;6.53;;
19828;SDS011;10075;50.924;4.396;2023-06-14T07:44:51;7.57;;;6.47;;
19828;SDS011;10075;50.924;4.396;2023-06-14T07:47:19;10.95;;;6.63;;
19828;SDS011;10075;50.924;4.396;2023-06-14T07:49:45;9.75;;;6.63;;
19828;SDS011;10075;50.924;4.396;2023-06-14T07:52:13;9.63;;;6.07;;
19828;SDS011;10075;50.924;4.396;2023-06-14T07:54:40;9.65;;;6.18;;
19828;SDS011;10075;50.924;4.396;2023-06-14T07:57:08;10.60;;;6.57;;
19828;SDS011;10075;50.924;4.396;2023-06-14T07:59:35;18.08;;;7.32;;
19828;SDS011;10075;50.924;4.396;2023-06-14T08:02:02;10.15;;;5.65;;
19828;SDS011;10075;50.924;4.396;2023-06-14T08:04:31;11.65;;;5.90;;
19828;SDS011;10075;50.924;4.396;2023-06-14T08:06:58;27.65;;;7.68;;
19828;SDS011;10075;50.924;4.396;2023-06-14T08:09:26;17.65;;;8.05;;
19828;SDS011;10075;50.924;4.396;2023-06-14T08:11:54;24.13;;;7.25;;
19828;SDS011;10075;50.924;4.396;2023-06-14T08:14:22;8.23;;;5.97;;
19828;SDS011;10075;50.924;4.396;2023-06-14T08:16:49;11.45;;;6.80;;
19828;SDS011;10075;50.924;4.396;2023-06-14T08:19:16;11.55;;;6.28;;
19828;SDS011;10075;50.924;4.396;2023-06-14T08:21:44;15.10;;;6.45;;
19828;SDS011;10075;50.924;4.396;2023-06-14T08:24:11;15.27;;;6.88;;
19828;SDS011;10075;50.924;4.396;2023-06-14T08:26:39;15.77;;;7.75;;
19828;SDS011;10075;50.924;4.396;2023-06-14T08:29:06;15.98;;;6.47;;
19828;SDS011;10075;50.924;4.396;2023-06-14T08:31:34;10.95;;;6.03;;
19828;SDS011;10075;50.924;4.396;2023-06-14T08:34:01;15.48;;;5.72;;
19828;SDS011;10075;50.924;4.396;2023-06-14T08:36:28;13.13;;;6.38;;
19828;SDS011;10075;50.924;4.396;2023-06-14T08:38:55;13.05;;;5.93;;
19828;SDS011;10075;50.924;4.396;2023-06-14T08:41:22;18.60;;;7.55;;
19828;SDS011;10075;50.924;4.396;2023-06-14T08:43:50;15.15;;;7.00;;
19828;SDS011;10075;50.924;4.396;2023-06-14T08:46:17;12.13;;;6.38;;
19828;SDS011;10075;50.924;4.396;2023-06-14T08:48:48;11.80;;;5.97;;
19828;SDS011;10075;50.924;4.396;2023-06-14T08:51:16;11.32;;;6.03;;
19828;SDS011;10075;50.924;4.396;2023-06-14T08:53:47;9.27;;;5.63;;
19828;SDS011;10075;50.924;4.396;2023-06-14T08:56:19;20.30;;;6.47;;
19828;SDS011;10075;50.924;4.396;2023-06-14T08:58:47;17.75;;;6.63;;
19828;SDS011;10075;50.924;4.396;2023-06-14T09:01:15;17.38;;;7.30;;
19828;SDS011;10075;50.924;4.396;2023-06-14T09:03:42;17.33;;;6.75;;
19828;SDS011;10075;50.924;4.396;2023-06-14T09:06:11;14.75;;;7.65;;
19828;SDS011;10075;50.924;4.396;2023-06-14T09:08:40;18.98;;;7.28;;
19828;SDS011;10075;50.924;4.396;2023-06-14T09:11:10;17.98;;;6.75;;
19828;SDS011;10075;50.924;4.396;2023-06-14T09:13:39;22.55;;;7.38;;
19828;SDS011;10075;50.924;4.396;2023-06-14T09:16:07;17.92;;;7.63;;
19828;SDS011;10075;50.924;4.396;2023-06-14T09:18:34;12.02;;;7.25;;
19828;SDS011;10075;50.924;4.396;2023-06-14T09:21:02;13.90;;;6.72;;
19828;SDS011;10075;50.924;4.396;2023-06-14T09:23:32;13.73;;;7.13;;
19828;SDS011;10075;50.924;4.396;2023-06-14T09:26:05;14.02;;;6.32;;
19828;SDS011;10075;50.924;4.396;2023-06-14T09:28:33;24.15;;;7.82;;
19828;SDS011;10075;50.924;4.396;2023-06-14T09:31:00;13.50;;;6.40;;
19828;SDS011;10075;50.924;4.396;2023-06-14T09:33:27;18.88;;;6.75;;
19828;SDS011;10075;50.924;4.396;2023-06-14T09:35:54;12.23;;;6.30;;
19828;SDS011;10075;50.924;4.396;2023-06-14T09:38:21;20.52;;;6.40;;
19828;SDS011;10075;50.924;4.396;2023-06-14T09:40:51;19.48;;;7.47;;
19828;SDS011;10075;50.924;4.396;2023-06-14T09:43:18;10.80;;;5.68;;
19828;SDS011;10075;50.924;4.396;2023-06-14T09:45:47;18.77;;;6.60;;
19828;SDS011;10075;50.924;4.396;2023-06-14T09:48:14;14.80;;;6.07;;
19828;SDS011;10075;50.924;4.396;2023-06-14T09:50:44;11.75;;;6.75;;
19828;SDS011;10075;50.924;4.396;2023-06-14T09:53:12;15.27;;;6.50;;
19828;SDS011;10075;50.924;4.396;2023-06-14T09:55:41;21.75;;;6.57;;
19828;SDS011;10075;50.924;4.396;2023-06-14T09:58:10;13.13;;;5.72;;
19828;SDS011;10075;50.924;4.396;2023-06-14T10:00:38;11.38;;;5.93;;
19828;SDS011;10075;50.924;4.396;2023-06-14T10:03:10;22.58;;;7.10;;
19828;SDS011;10075;50.924;4.396;2023-06-14T10:05:40;18.60;;;6.22;;
19828;SDS011;10075;50.924;4.396;2023-06-14T10:08:10;19.67;;;5.82;;
19828;SDS011;10075;50.924;4.396;2023-06-14T10:10:40;18.20;;;6.00;;
19828;SDS011;10075;50.924;4.396;2023-06-14T10:13:10;13.18;;;5.18;;
19828;SDS011;10075;50.924;4.396;2023-06-14T10:15:38;9.82;;;4.85;;
19828;SDS011;10075;50.924;4.396;2023-06-14T10:18:14;7.45;;;4.57;;
19828;SDS011;10075;50.924;4.396;2023-06-14T10:20:49;8.52;;;4.57;;
19828;SDS011;10075;50.924;4.396;2023-06-14T10:23:22;20.48;;;4.55;;
19828;SDS011;10075;50.924;4.396;2023-06-14T10:25:54;6.85;;;4.97;;
19828;SDS011;10075;50.924;4.396;2023-06-14T10:28:24;6.65;;;4.40;;
19828;SDS011;10075;50.924;4.396;2023-06-14T10:33:34;9.57;;;4.20;;
19828;SDS011;10075;50.924;4.396;2023-06-14T10:38:59;8.30;;;4.22;;
19828;SDS011;10075;50.924;4.396;2023-06-14T10:41:28;7.47;;;4.68;;
19828;SDS011;10075;50.924;4.396;2023-06-14T10:47:07;8.93;;;4.30;;
19828;SDS011;10075;50.924;4.396;2023-06-14T10:49:37;7.40;;;4.65;;
19828;SDS011;10075;50.924;4.396;2023-06-14T10:52:10;7.55;;;4.32;;
19828;SDS011;10075;50.924;4.396;2023-06-14T10:57:38;6.50;;;4.47;;
19828;SDS011;10075;50.924;4.396;2023-06-14T11:00:07;10.02;;;4.63;;
19828;SDS011;10075;50.924;4.396;2023-06-14T11:06:01;8.55;;;4.50;;
19828;SDS011;10075;50.924;4.396;2023-06-14T11:08:44;11.90;;;4.38;;
19828;SDS011;10075;50.924;4.396;2023-06-14T11:11:36;5.60;;;3.80;;
19828;SDS011;10075;50.924;4.396;2023-06-14T11:14:07;8.20;;;4.10;;
19828;SDS011;10075;50.924;4.396;2023-06-14T11:16:38;7.50;;;3.90;;
19828;SDS011;10075;50.924;4.396;2023-06-14T11:19:05;9.77;;;4.13;;
19828;SDS011;10075;50.924;4.396;2023-06-14T11:21:32;7.30;;;3.90;;
19828;SDS011;10075;50.924;4.396;2023-06-14T11:23:59;5.95;;;3.75;;
19828;SDS011;10075;50.924;4.396;2023-06-14T11:26:27;8.57;;;4.28;;
19828;SDS011;10075;50.924;4.396;2023-06-14T11:28:55;11.25;;;4.20;;
19828;SDS011;10075;50.924;4.396;2023-06-14T11:31:23;5.63;;;4.30;;
19828;SDS011;10075;50.924;4.396;2023-06-14T11:33:52;14.15;;;4.70;;
19828;SDS011;10075;50.924;4.396;2023-06-14T11:36:20;9.75;;;4.15;;
19828;SDS011;10075;50.924;4.396;2023-06-14T11:38:47;7.25;;;4.28;;
19828;SDS011;10075;50.924;4.396;2023-06-14T11:41:15;8.63;;;3.53;;
19828;SDS011;10075;50.924;4.396;2023-06-14T11:43:42;10.77;;;4.25;;
19828;SDS011;10075;50.924;4.396;2023-06-14T11:46:12;20.98;;;5.25;;
19828;SDS011;10075;50.924;4.396;2023-06-14T11:48:41;25.83;;;5.82;;
19828;SDS011;10075;50.924;4.396;2023-06-14T11:51:10;14.50;;;4.10;;
19828;SDS011;10075;50.924;4.396;2023-06-14T11:53:37;11.90;;;4.20;;
19828;SDS011;10075;50.924;4.396;2023-06-14T11:56:04;16.85;;;4.50;;
19828;SDS011;10075;50.924;4.396;2023-06-14T11:58:32;14.65;;;4.47;;
19828;SDS011;10075;50.924;4.396;2023-06-14T12:00:59;17.75;;;5.03;;
19828;SDS011;10075;50.924;4.396;2023-06-14T12:03:27;8.85;;;4.30;;
19828;SDS011;10075;50.924;4.396;2023-06-14T12:06:01;12.93;;;4.10;;
19828;SDS011;10075;50.924;4.396;2023-06-14T12:08:35;16.80;;;5.30;;
19828;SDS011;10075;50.924;4.396;2023-06-14T12:11:05;10.73;;;4.72;;
19828;SDS011;10075;50.924;4.396;2023-06-14T12:13:33;8.55;;;4.10;;
19828;SDS011;10075;50.924;4.396;2023-06-14T12:16:01;10.70;;;4.05;;
19828;SDS011;10075;50.924;4.396;2023-06-14T12:18:33;7.22;;;3.75;;
19828;SDS011;10075;50.924;4.396;2023-06-14T12:21:00;11.18;;;3.92;;
19828;SDS011;10075;50.924;4.396;2023-06-14T12:23:41;16.77;;;4.20;;
19828;SDS011;10075;50.924;4.396;2023-06-14T12:26:09;14.98;;;3.75;;
19828;SDS011;10075;50.924;4.396;2023-06-14T12:28:39;7.53;;;3.63;;
19828;SDS011;10075;50.924;4.396;2023-06-14T12:31:07;10.95;;;3.80;;
19828;SDS011;10075;50.924;4.396;2023-06-14T12:33:34;18.77;;;4.60;;
19828;SDS011;10075;50.924;4.396;2023-06-14T12:36:02;15.95;;;4.28;;
19828;SDS011;10075;50.924;4.396;2023-06-14T12:38:30;10.48;;;4.15;;
19828;SDS011;10075;50.924;4.396;2023-06-14T12:40:59;11.00;;;3.45;;
19828;SDS011;10075;50.924;4.396;2023-06-14T12:43:26;7.20;;;3.40;;
19828;SDS011;10075;50.924;4.396;2023-06-14T12:45:53;9.10;;;3.40;;
19828;SDS011;10075;50.924;4.396;2023-06-14T12:48:20;21.08;;;4.88;;
19828;SDS011;10075;50.924;4.396;2023-06-14T12:50:48;10.68;;;3.80;;
19828;SDS011;10075;50.924;4.396;2023-06-14T12:53:15;11.30;;;4.07;;
19828;SDS011;10075;50.924;4.396;2023-06-14T12:55:42;7.05;;;3.22;;
19828;SDS011;10075;50.924;4.396;2023-06-14T12:58:10;6.00;;;3.63;;
19828;SDS011;10075;50.924;4.396;2023-06-14T13:00:39;9.63;;;3.85;;
19828;SDS011;10075;50.924;4.396;2023-06-14T13:03:06;13.90;;;4.20;;
19828;SDS011;10075;50.924;4.396;2023-06-14T13:05:33;6.43;;;3.30;;
19828;SDS011;10075;50.924;4.396;2023-06-14T13:08:00;6.20;;;3.10;;
19828;SDS011;10075;50.924;4.396;2023-06-14T13:10:27;11.50;;;3.72;;
19828;SDS011;10075;50.924;4.396;2023-06-14T13:12:54;16.95;;;4.63;;
19828;SDS011;10075;50.924;4.396;2023-06-14T13:15:24;9.00;;;3.38;;
19828;SDS011;10075;50.924;4.396;2023-06-14T13:17:52;9.35;;;4.15;;
19828;SDS011;10075;50.924;4.396;2023-06-14T13:20:19;7.35;;;3.30;;
19828;SDS011;10075;50.924;4.396;2023-06-14T13:22:46;9.07;;;3.05;;
19828;SDS011;10075;50.924;4.396;2023-06-14T13:25:13;6.90;;;2.88;;
19828;SDS011;10075;50.924;4.396;2023-06-14T13:27:40;9.15;;;3.65;;
19828;SDS011;10075;50.924;4.396;2023-06-14T13:30:07;12.02;;;3.40;;
19828;SDS011;10075;50.924;4.396;2023-06-14T13:32:37;7.63;;;3.38;;
19828;SDS011;10075;50.924;4.396;2023-06-14T13:35:04;8.30;;;3.45;;
19828;SDS011;10075;50.924;4.396;2023-06-14T13:37:32;18.02;;;3.80;;
19828;SDS011;10075;50.924;4.396;2023-06-14T13:39:59;5.47;;;2.60;;
19828;SDS011;10075;50.924;4.396;2023-06-14T13:42:27;7.47;;;2.90;;
19828;SDS011;10075;50.924;4.396;2023-06-14T13:44:56;6.10;;;2.17;;
19828;SDS011;10075;50.924;4.396;2023-06-14T13:47:24;6.20;;;2.67;;
19828;SDS011;10075;50.924;4.396;2023-06-14T13:49:52;6.30;;;2.35;;
19828;SDS011;10075;50.924;4.396;2023-06-14T13:52:20;8.65;;;2.65;;
19828;SDS011;10075;50.924;4.396;2023-06-14T13:54:47;4.40;;;2.10;;
19828;SDS011;10075;50.924;4.396;2023-06-14T13:57:14;5.72;;;2.28;;
19828;SDS011;10075;50.924;4.396;2023-06-14T13:59:41;3.53;;;2.17;;
19828;SDS011;10075;50.924;4.396;2023-06-14T14:02:09;6.35;;;1.95;;
19828;SDS011;10075;50.924;4.396;2023-06-14T14:04:37;6.78;;;2.10;;
19828;SDS011;10075;50.924;4.396;2023-06-14T14:07:06;11.93;;;2.60;;
19828;SDS011;10075;50.924;4.396;2023-06-14T14:09:33;10.82;;;1.90;;
19828;SDS011;10075;50.924;4.396;2023-06-14T14:12:02;6.55;;;2.10;;
19828;SDS011;10075;50.924;4.396;2023-06-14T14:14:30;4.10;;;2.28;;
19828;SDS011;10075;50.924;4.396;2023-06-14T14:16:58;6.78;;;2.05;;
19828;SDS011;10075;50.924;4.396;2023-06-14T14:19:25;7.65;;;2.10;;
19828;SDS011;10075;50.924;4.396;2023-06-14T14:21:52;8.95;;;2.08;;
19828;SDS011;10075;50.924;4.396;2023-06-14T14:24:21;13.63;;;2.75;;
19828;SDS011;10075;50.924;4.396;2023-06-14T14:26:48;5.00;;;1.83;;
19828;SDS011;10075;50.924;4.396;2023-06-14T14:29:17;5.70;;;1.30;;
19828;SDS011;10075;50.924;4.396;2023-06-14T14:31:44;4.55;;;1.83;;
19828;SDS011;10075;50.924;4.396;2023-06-14T14:34:11;5.18;;;1.60;;
19828;SDS011;10075;50.924;4.396;2023-06-14T14:36:38;3.22;;;1.63;;
19828;SDS011;10075;50.924;4.396;2023-06-14T14:39:07;6.43;;;1.70;;
19828;SDS011;10075;50.924;4.396;2023-06-14T14:41:36;12.48;;;2.33;;
19828;SDS011;10075;50.924;4.396;2023-06-14T14:44:03;10.00;;;2.00;;
19828;SDS011;10075;50.924;4.396;2023-06-14T14:46:31;10.35;;;1.90;;
19828;SDS011;10075;50.924;4.396;2023-06-14T14:48:58;4.60;;;1.70;;
19828;SDS011;10075;50.924;4.396;2023-06-14T14:51:25;4.55;;;1.70;;
19828;SDS011;10075;50.924;4.396;2023-06-14T14:53:52;7.82;;;1.80;;
19828;SDS011;10075;50.924;4.396;2023-06-14T14:56:19;5.97;;;1.60;;
19828;SDS011;10075;50.924;4.396;2023-06-14T14:58:48;6.35;;;1.75;;